createdAt,value
2023-03-29T00:00:05.959Z,2.20
2023-03-29T00:01:06.067Z,2.17
2023-03-29T00:02:06.104Z,2.20
2023-03-29T00:03:06.339Z,2.21
2023-03-29T00:04:06.464Z,2.15
2023-03-29T00:05:05.276Z,2.22
2023-03-29T00:06:05.349Z,2.14
2023-03-29T00:07:06.425Z,2.18
2023-03-29T00:08:06.482Z,2.19
2023-03-29T00:09:06.554Z,2.15
2023-03-29T00:10:05.592Z,2.18
2023-03-29T00:11:06.673Z,2.15
2023-03-29T00:12:05.705Z,2.23
2023-03-29T00:13:06.781Z,2.14
2023-03-29T00:14:06.843Z,2.17
2023-03-29T00:15:06.918Z,2.13
2023-03-29T00:16:06.965Z,2.11
2023-03-29T00:17:07.146Z,2.14
2023-03-29T00:18:07.259Z,2.21
2023-03-29T00:19:07.158Z,2.15
2023-03-29T00:20:07.218Z,2.17
2023-03-29T00:21:07.292Z,2.17
2023-03-29T00:22:07.356Z,2.17
2023-03-29T00:23:06.406Z,2.11
2023-03-29T00:24:07.464Z,2.17
2023-03-29T00:25:07.549Z,2.15
2023-03-29T00:26:08.315Z,2.12
2023-03-29T00:27:07.634Z,2.15
2023-03-29T00:28:06.699Z,2.10
2023-03-29T00:29:07.761Z,2.14
2023-03-29T00:30:07.841Z,2.09
2023-03-29T00:31:07.952Z,2.13
2023-03-29T00:32:07.960Z,2.13
2023-03-29T00:33:08.113Z,2.14
2023-03-29T00:34:08.070Z,2.11
2023-03-29T00:35:08.137Z,2.09
2023-03-29T00:36:08.255Z,2.11
2023-03-29T00:37:08.275Z,2.11
2023-03-29T00:38:08.336Z,2.08
2023-03-29T00:39:08.416Z,2.10
2023-03-29T00:40:08.450Z,2.12
2023-03-29T00:41:07.508Z,2.06
2023-03-29T00:42:08.590Z,2.08
2023-03-29T00:43:08.633Z,2.12
2023-03-29T00:44:07.688Z,2.05
2023-03-29T00:45:07.760Z,2.11
2023-03-29T00:46:08.806Z,2.10
2023-03-29T00:47:08.854Z,2.05
2023-03-29T00:48:08.543Z,2.05
2023-03-29T00:49:08.978Z,2.05
2023-03-29T00:50:09.012Z,2.07
2023-03-29T00:51:09.969Z,2.07
2023-03-29T00:52:09.089Z,2.07
2023-03-29T00:53:09.150Z,2.05
2023-03-29T00:54:09.121Z,2.06
2023-03-29T00:55:09.134Z,2.02
2023-03-29T00:56:08.131Z,1.95
2023-03-29T00:57:08.154Z,2.08
2023-03-29T00:58:09.166Z,2.02
2023-03-29T00:59:09.144Z,2.05
2023-03-29T01:00:09.166Z,2.05
2023-03-29T01:01:09.162Z,2.03
2023-03-29T01:02:08.240Z,2.07
2023-03-29T01:03:09.257Z,2.05
2023-03-29T01:04:08.292Z,2.04
2023-03-29T01:05:09.228Z,2.07
2023-03-29T01:06:09.218Z,2.06
2023-03-29T01:07:08.372Z,2.02
2023-03-29T01:08:09.290Z,2.04
2023-03-29T01:09:08.291Z,2.01
2023-03-29T01:10:09.311Z,2.00
2023-03-29T01:11:08.334Z,2.00
2023-03-29T01:12:09.331Z,2.03
2023-03-29T01:13:09.364Z,2.00
2023-03-29T01:14:08.397Z,2.02
2023-03-29T01:15:09.415Z,2.00
2023-03-29T01:16:09.489Z,2.00
2023-03-29T01:17:09.473Z,2.01
2023-03-29T01:18:08.634Z,2.01
2023-03-29T01:19:09.596Z,2.03
2023-03-29T01:20:09.647Z,2.03
2023-03-29T01:21:09.727Z,1.97
2023-03-29T01:22:09.709Z,1.98
2023-03-29T01:23:09.720Z,1.96
2023-03-29T01:24:09.781Z,1.99
2023-03-29T01:25:08.759Z,2.01
2023-03-29T01:26:09.768Z,1.97
2023-03-29T01:27:09.766Z,1.99
2023-03-29T01:28:09.778Z,2.01
2023-03-29T01:29:09.785Z,1.97
2023-03-29T01:30:08.818Z,1.98
2023-03-29T01:31:09.789Z,1.95
2023-03-29T01:32:09.928Z,1.95
2023-03-29T01:33:09.804Z,1.93
2023-03-29T01:34:08.790Z,1.98
2023-03-29T01:35:09.815Z,1.95
2023-03-29T01:36:08.887Z,1.93
2023-03-29T01:37:09.860Z,1.96
2023-03-29T01:38:09.843Z,1.91
2023-03-29T01:39:09.871Z,1.95
2023-03-29T01:40:09.876Z,1.94
2023-03-29T01:41:09.903Z,1.93
2023-03-29T01:42:08.897Z,1.89
2023-03-29T01:43:09.918Z,1.93
2023-03-29T01:44:09.893Z,1.93
2023-03-29T01:45:09.904Z,1.96
2023-03-29T01:46:09.942Z,1.97
2023-03-29T01:47:09.971Z,1.90
2023-03-29T01:48:09.937Z,1.91
2023-03-29T01:49:09.927Z,1.89
2023-03-29T01:50:09.938Z,1.89
2023-03-29T01:51:08.965Z,1.93
2023-03-29T01:52:09.985Z,1.91
2023-03-29T01:53:10.047Z,1.90
2023-03-29T01:54:10.026Z,1.90
2023-03-29T01:55:09.041Z,1.90
2023-03-29T01:56:10.041Z,1.91
2023-03-29T01:57:10.103Z,1.88
2023-03-29T01:58:10.145Z,1.87
2023-03-29T01:59:10.203Z,1.90
2023-03-29T02:00:10.263Z,1.90
2023-03-29T02:01:09.330Z,1.91
2023-03-29T02:02:10.426Z,1.87
2023-03-29T02:03:10.630Z,1.87
2023-03-29T02:04:10.517Z,1.91
2023-03-29T02:05:10.545Z,1.92
2023-03-29T02:06:09.595Z,1.91
2023-03-29T02:07:10.674Z,1.88
2023-03-29T02:08:10.713Z,1.86
2023-03-29T02:09:10.859Z,1.85
2023-03-29T02:10:10.847Z,1.88
2023-03-29T02:11:10.914Z,1.88
2023-03-29T02:12:10.971Z,1.91
2023-03-29T02:13:11.026Z,1.87
2023-03-29T02:14:10.090Z,1.91
2023-03-29T02:15:11.213Z,1.88
2023-03-29T02:16:10.262Z,1.89
2023-03-29T02:17:11.269Z,1.88
2023-03-29T02:18:11.319Z,1.88
2023-03-29T02:19:10.353Z,1.88
2023-03-29T02:20:11.392Z,1.84
2023-03-29T02:21:11.437Z,1.85
2023-03-29T02:22:11.464Z,1.86
2023-03-29T02:23:11.522Z,1.87
2023-03-29T02:24:11.555Z,1.85
2023-03-29T02:25:11.603Z,1.85
2023-03-29T02:26:10.594Z,1.85
2023-03-29T02:27:10.637Z,1.87
2023-03-29T02:28:10.675Z,1.87
2023-03-29T02:29:11.698Z,1.86
2023-03-29T02:30:11.732Z,1.86
2023-03-29T02:31:11.773Z,1.83
2023-03-29T02:32:11.772Z,1.87
2023-03-29T02:33:11.804Z,1.83
2023-03-29T02:34:11.823Z,1.84
2023-03-29T02:35:11.849Z,1.85
2023-03-29T02:36:11.886Z,1.84
2023-03-29T02:37:11.895Z,1.84
2023-03-29T02:38:11.885Z,1.87
2023-03-29T02:39:10.905Z,1.81
2023-03-29T02:40:11.951Z,1.83
2023-03-29T02:41:11.972Z,1.85
2023-03-29T02:42:11.968Z,1.84
2023-03-29T02:43:11.981Z,1.78
2023-03-29T02:44:10.966Z,1.83
2023-03-29T02:45:12.006Z,1.82
2023-03-29T02:46:12.024Z,1.83
2023-03-29T02:47:11.997Z,1.82
2023-03-29T02:48:11.998Z,1.81
2023-03-29T02:49:11.990Z,1.87
2023-03-29T02:50:12.005Z,1.83
2023-03-29T02:51:12.000Z,1.82
2023-03-29T02:52:12.024Z,1.82
2023-03-29T02:53:12.039Z,1.81
2023-03-29T02:54:12.018Z,1.83
2023-03-29T02:55:12.024Z,1.82
2023-03-29T02:56:12.049Z,1.79
2023-03-29T02:57:12.095Z,1.82
2023-03-29T02:58:11.055Z,1.78
2023-03-29T02:59:12.036Z,1.80
2023-03-29T03:00:11.044Z,1.82
2023-03-29T03:01:12.044Z,1.80
2023-03-29T03:02:12.106Z,1.79
2023-03-29T03:03:11.111Z,1.77
2023-03-29T03:04:12.110Z,1.78
2023-03-29T03:05:11.047Z,1.77
2023-03-29T03:06:11.062Z,1.81
2023-03-29T03:07:12.042Z,1.76
2023-03-29T03:08:12.033Z,1.78
2023-03-29T03:09:12.036Z,1.77
2023-03-29T03:10:12.053Z,1.72
2023-03-29T03:11:12.037Z,1.72
2023-03-29T03:12:12.048Z,1.76
2023-03-29T03:13:11.053Z,1.74
2023-03-29T03:14:12.034Z,1.75
2023-03-29T03:15:12.018Z,1.73
2023-03-29T03:16:12.072Z,1.76
2023-03-29T03:17:12.048Z,1.71
2023-03-29T03:18:12.021Z,1.73
2023-03-29T03:19:12.016Z,1.73
2023-03-29T03:20:12.015Z,1.73
2023-03-29T03:21:12.003Z,1.70
2023-03-29T03:22:12.120Z,1.75
2023-03-29T03:23:11.992Z,1.70
2023-03-29T03:24:12.009Z,1.70
2023-03-29T03:25:12.021Z,1.70
2023-03-29T03:26:12.004Z,1.71
2023-03-29T03:27:11.999Z,1.68
2023-03-29T03:28:12.009Z,1.72
2023-03-29T03:29:12.034Z,1.70
2023-03-29T03:30:12.060Z,1.73
2023-03-29T03:31:12.057Z,1.68
2023-03-29T03:32:12.033Z,1.69
2023-03-29T03:33:12.045Z,1.71
2023-03-29T03:34:12.074Z,1.67
2023-03-29T03:35:11.089Z,1.70
2023-03-29T03:36:12.199Z,1.68
2023-03-29T03:37:12.089Z,1.67
2023-03-29T03:38:11.061Z,1.66
2023-03-29T03:39:12.075Z,1.70
2023-03-29T03:40:12.216Z,1.69
2023-03-29T03:41:12.085Z,1.67
2023-03-29T03:42:11.086Z,1.64
2023-03-29T03:43:12.075Z,1.72
2023-03-29T03:44:12.091Z,1.66
2023-03-29T03:45:12.119Z,1.67
2023-03-29T03:46:12.151Z,1.67
2023-03-29T03:47:11.075Z,1.66
2023-03-29T03:48:12.095Z,1.60
2023-03-29T03:49:12.093Z,1.67
2023-03-29T03:50:12.090Z,1.68
2023-03-29T03:51:12.086Z,1.68
2023-03-29T03:52:12.090Z,1.66
2023-03-29T03:53:12.070Z,1.64
2023-03-29T03:54:12.072Z,1.62
2023-03-29T03:55:12.069Z,1.65
2023-03-29T03:56:11.090Z,1.66
2023-03-29T03:57:11.150Z,1.64
2023-03-29T03:58:12.112Z,1.66
2023-03-29T03:59:12.119Z,1.63
2023-03-29T04:00:11.108Z,1.66
2023-03-29T04:01:12.133Z,1.63
2023-03-29T04:02:11.149Z,1.62
2023-03-29T04:03:12.199Z,1.62
2023-03-29T04:04:12.161Z,1.63
2023-03-29T04:05:12.139Z,1.64
2023-03-29T04:06:12.139Z,1.64
2023-03-29T04:07:12.144Z,1.63
2023-03-29T04:08:12.134Z,1.65
2023-03-29T04:09:12.151Z,1.62
2023-03-29T04:10:11.204Z,1.61
2023-03-29T04:11:12.167Z,1.65
2023-03-29T04:12:11.192Z,1.63
2023-03-29T04:13:12.189Z,1.64
2023-03-29T04:14:11.210Z,1.60
2023-03-29T04:15:12.301Z,1.61
2023-03-29T04:16:12.282Z,1.62
2023-03-29T04:17:12.241Z,1.64
2023-03-29T04:18:12.328Z,1.65
2023-03-29T04:19:11.262Z,1.64
2023-03-29T04:20:12.292Z,1.64
2023-03-29T04:21:12.304Z,1.62
2023-03-29T04:22:12.311Z,1.62
2023-03-29T04:23:12.305Z,1.63
2023-03-29T04:24:12.318Z,1.61
2023-03-29T04:25:12.336Z,1.60
2023-03-29T04:26:12.360Z,1.61
2023-03-29T04:27:12.365Z,1.62
2023-03-29T04:28:12.390Z,1.63
2023-03-29T04:29:12.378Z,1.60
2023-03-29T04:30:11.398Z,1.64
2023-03-29T04:31:11.456Z,1.61
2023-03-29T04:32:12.410Z,1.64
2023-03-29T04:33:12.490Z,1.63
2023-03-29T04:34:12.437Z,1.64
2023-03-29T04:35:12.435Z,1.59
2023-03-29T04:36:12.498Z,1.58
2023-03-29T04:37:12.435Z,1.59
2023-03-29T04:38:12.437Z,1.58
2023-03-29T04:39:12.446Z,1.58
2023-03-29T04:40:12.456Z,1.57
2023-03-29T04:41:12.459Z,1.59
2023-03-29T04:42:12.459Z,1.60
2023-03-29T04:43:12.002Z,1.60
2023-03-29T04:44:12.449Z,1.56
2023-03-29T04:45:12.516Z,1.60
2023-03-29T04:46:12.530Z,1.56
2023-03-29T04:47:12.471Z,1.59
2023-03-29T04:48:12.566Z,1.53
2023-03-29T04:49:12.536Z,1.60
2023-03-29T04:50:12.521Z,1.55
2023-03-29T04:51:12.514Z,1.56
2023-03-29T04:52:12.536Z,1.58
2023-03-29T04:53:12.541Z,1.57
2023-03-29T04:54:12.554Z,1.56
2023-03-29T04:55:11.535Z,1.57
2023-03-29T04:56:12.550Z,1.56
2023-03-29T04:57:12.597Z,1.54
2023-03-29T04:58:12.575Z,1.54
2023-03-29T04:59:12.551Z,1.57
2023-03-29T05:00:12.552Z,1.53
2023-03-29T05:01:12.568Z,1.56
2023-03-29T05:02:12.620Z,1.56
2023-03-29T05:03:12.600Z,1.56
2023-03-29T05:04:13.018Z,1.56
2023-03-29T05:06:11.706Z,1.53
2023-03-29T05:07:12.585Z,1.55
2023-03-29T05:08:12.665Z,1.55
2023-03-29T05:09:12.622Z,1.55
2023-03-29T05:10:12.655Z,1.53
2023-03-29T05:11:12.632Z,1.56
2023-03-29T05:14:11.612Z,1.54
2023-03-29T05:15:12.637Z,1.51
2023-03-29T05:16:12.724Z,1.53
2023-03-29T05:17:12.681Z,1.54
2023-03-29T05:18:11.738Z,1.51
2023-03-29T05:19:12.668Z,1.52
2023-03-29T05:20:12.674Z,1.51
2023-03-29T05:21:12.710Z,1.50
2023-03-29T05:25:11.664Z,1.49
2023-03-29T05:26:12.687Z,1.54
2023-03-29T05:29:11.663Z,1.52
2023-03-29T05:30:12.633Z,1.50
2023-03-29T05:31:15.416Z,1.51
2023-03-29T05:36:11.638Z,1.57
2023-03-29T05:37:12.620Z,1.55
2023-03-29T05:38:11.601Z,1.54
2023-03-29T05:39:12.603Z,1.54
2023-03-29T05:41:11.605Z,1.57
2023-03-29T05:42:12.584Z,1.55
2023-03-29T05:43:12.598Z,1.59
2023-03-29T05:44:12.555Z,1.60
2023-03-29T05:48:11.563Z,1.65
2023-03-29T05:49:12.602Z,1.73
2023-03-29T05:50:12.600Z,1.71
2023-03-29T05:53:11.553Z,2.01
2023-03-29T05:54:12.638Z,1.86
2023-03-29T05:56:11.549Z,1.96
2023-03-29T05:57:12.619Z,1.93
2023-03-29T05:58:12.556Z,2.01
2023-03-29T06:02:11.664Z,2.38
2023-03-29T06:03:20.188Z,2.46
2023-03-29T06:04:12.673Z,2.48
2023-03-29T06:05:12.552Z,2.51
2023-03-29T06:06:12.556Z,2.58
2023-03-29T06:07:12.690Z,2.68
2023-03-29T06:08:12.547Z,2.92
2023-03-29T06:09:12.572Z,3.18
2023-03-29T06:10:11.545Z,3.17
2023-03-29T06:11:12.539Z,3.27
2023-03-29T06:12:12.659Z,3.25
2023-03-29T06:13:12.506Z,3.53
2023-03-29T06:14:12.647Z,3.75
2023-03-29T06:15:12.724Z,3.97
2023-03-29T06:18:12.390Z,4.24
2023-03-29T06:19:11.522Z,4.33
2023-03-29T06:20:12.476Z,4.47
2023-03-29T06:21:15.480Z,4.68
2023-03-29T06:25:11.607Z,4.75
2023-03-29T06:26:11.435Z,4.81
2023-03-29T06:27:12.567Z,4.88
2023-03-29T06:30:11.423Z,5.37
2023-03-29T06:31:12.487Z,5.34
2023-03-29T06:32:11.401Z,5.45
2023-03-29T06:33:12.392Z,5.52
2023-03-29T06:34:12.421Z,5.66
2023-03-29T06:35:12.936Z,5.77
2023-03-29T06:40:11.349Z,6.25
2023-03-29T06:41:12.382Z,6.22
2023-03-29T06:42:20.490Z,6.26
2023-03-29T06:43:12.386Z,6.28
2023-03-29T06:46:11.965Z,6.69
2023-03-29T06:47:12.327Z,6.95
2023-03-29T06:48:12.299Z,7.13
2023-03-29T06:51:11.301Z,7.66
2023-03-29T06:52:11.546Z,7.80
2023-03-29T06:53:12.275Z,8.16
2023-03-29T06:54:12.261Z,3.68
2023-03-29T06:55:12.264Z,2.38
2023-03-29T06:56:12.467Z,2.50
2023-03-29T06:57:13.469Z,2.71
2023-03-29T06:58:12.446Z,3.19
2023-03-29T07:02:11.584Z,5.69
2023-03-29T07:04:11.618Z,5.22
2023-03-29T07:05:12.610Z,5.16
2023-03-29T07:06:12.640Z,5.42
2023-03-29T07:07:11.710Z,5.16
2023-03-29T07:08:12.723Z,5.23
2023-03-29T07:09:12.734Z,5.35
2023-03-29T07:10:12.836Z,5.58
2023-03-29T07:11:13.150Z,5.69
2023-03-29T07:13:11.767Z,5.58
2023-03-29T07:14:12.071Z,5.87
2023-03-29T07:15:18.732Z,5.96
2023-03-29T07:17:11.726Z,6.02
2023-03-29T07:21:11.724Z,6.86
2023-03-29T07:22:11.707Z,6.88
2023-03-29T07:23:12.687Z,6.66
2023-03-29T07:28:11.657Z,6.00
2023-03-29T07:29:12.696Z,6.28
2023-03-29T07:30:12.647Z,6.77
2023-03-29T07:32:11.699Z,6.51
2023-03-29T07:33:12.740Z,6.35
2023-03-29T07:35:11.622Z,6.49
2023-03-29T07:36:12.677Z,6.66
2023-03-29T07:37:12.623Z,7.90
2023-03-29T07:41:11.585Z,9.02
2023-03-29T07:42:12.578Z,9.14
2023-03-29T07:43:13.079Z,9.99
2023-03-29T07:44:12.573Z,9.93
2023-03-29T07:46:11.607Z,10.16
2023-03-29T07:47:12.577Z,9.80
2023-03-29T07:49:11.608Z,8.87
2023-03-29T07:50:12.677Z,9.19
2023-03-29T07:51:12.719Z,8.98
2023-03-29T07:52:13.084Z,8.79
2023-03-29T07:53:12.822Z,8.80
2023-03-29T07:54:12.879Z,9.25
2023-03-29T07:55:12.962Z,9.27
2023-03-29T07:56:12.991Z,9.47
2023-03-29T07:57:13.068Z,9.50
2023-03-29T07:58:13.120Z,9.42
2023-03-29T07:59:13.178Z,9.48
2023-03-29T08:00:12.239Z,9.35
2023-03-29T08:01:15.348Z,9.10
2023-03-29T08:06:12.259Z,8.81
2023-03-29T08:07:13.283Z,8.72
2023-03-29T08:11:12.242Z,8.19
2023-03-29T08:12:13.230Z,8.20
2023-03-29T08:13:12.212Z,8.21
2023-03-29T08:14:13.232Z,7.98
2023-03-29T08:18:12.227Z,7.87
2023-03-29T08:21:12.166Z,7.62
2023-03-29T08:22:13.147Z,7.69
2023-03-29T08:24:12.153Z,7.40
2023-03-29T08:25:13.144Z,7.47
2023-03-29T08:26:12.140Z,7.21
2023-03-29T08:29:12.150Z,7.28
2023-03-29T08:30:13.142Z,7.07
2023-03-29T08:31:13.296Z,6.98
2023-03-29T08:32:13.159Z,6.88
2023-03-29T08:33:12.267Z,6.88
2023-03-29T08:34:13.179Z,6.66
2023-03-29T08:35:13.185Z,6.84
2023-03-29T08:36:13.273Z,6.77
2023-03-29T08:39:12.254Z,6.37
2023-03-29T08:40:13.253Z,6.51
2023-03-29T08:41:13.298Z,6.28
2023-03-29T08:42:13.615Z,6.39
2023-03-29T08:43:13.315Z,6.18
2023-03-29T08:46:12.377Z,6.18
2023-03-29T08:47:17.823Z,6.03
2023-03-29T08:51:12.351Z,5.87
2023-03-29T08:52:13.360Z,5.95
2023-03-29T08:53:13.386Z,5.82
2023-03-29T08:54:13.383Z,5.78
2023-03-29T08:55:13.404Z,5.70
2023-03-29T08:56:13.417Z,5.67
2023-03-29T08:57:13.539Z,5.70
2023-03-29T08:58:13.615Z,5.63
2023-03-29T09:00:12.455Z,5.63
2023-03-29T09:01:13.489Z,5.53
2023-03-29T09:02:13.556Z,5.46
2023-03-29T09:03:13.633Z,5.61
2023-03-29T09:04:13.579Z,5.47
2023-03-29T09:05:13.563Z,5.41
2023-03-29T09:06:13.561Z,5.51
2023-03-29T09:07:13.571Z,5.31
2023-03-29T09:08:13.610Z,5.35
2023-03-29T09:09:13.582Z,5.20
2023-03-29T09:10:13.638Z,5.23
2023-03-29T09:15:12.684Z,5.12
2023-03-29T09:16:13.757Z,5.09
2023-03-29T09:17:13.743Z,5.06
2023-03-29T09:18:13.820Z,5.04
2023-03-29T09:19:12.739Z,5.11
2023-03-29T09:20:12.777Z,5.01
2023-03-29T09:21:12.806Z,5.05
2023-03-29T09:24:12.840Z,4.74
2023-03-29T09:25:13.865Z,4.56
2023-03-29T09:27:12.897Z,4.50
2023-03-29T09:28:12.931Z,4.53
2023-03-29T09:31:12.964Z,4.77
2023-03-29T09:32:13.969Z,4.81
2023-03-29T09:33:14.040Z,4.67
2023-03-29T09:34:15.307Z,4.78
2023-03-29T09:36:13.040Z,4.79
2023-03-29T09:39:12.975Z,4.68
2023-03-29T09:40:13.971Z,4.55
2023-03-29T09:44:27.669Z,4.85
2023-03-29T09:45:13.938Z,4.87
2023-03-29T09:46:12.971Z,4.94
2023-03-29T09:47:13.926Z,4.52
2023-03-29T09:48:14.144Z,3.81
2023-03-29T09:52:12.930Z,1.15
2023-03-29T09:53:13.169Z,1.30
2023-03-29T09:54:13.872Z,1.20
2023-03-29T09:56:12.870Z,1.00
2023-03-29T09:57:13.902Z,0.93
2023-03-29T09:58:13.898Z,0.84
2023-03-29T09:59:13.830Z,0.90
2023-03-29T10:00:13.843Z,0.83
2023-03-29T10:02:12.853Z,0.79
2023-03-29T10:03:13.892Z,0.79
2023-03-29T10:04:13.976Z,0.69
2023-03-29T10:05:13.023Z,0.64
2023-03-29T10:06:14.058Z,0.63
2023-03-29T10:07:14.066Z,0.59
2023-03-29T10:11:13.289Z,0.64
2023-03-29T10:14:13.413Z,0.98
2023-03-29T10:15:26.768Z,1.05
2023-03-29T10:17:13.427Z,1.08
2023-03-29T10:18:14.446Z,1.15
2023-03-29T10:19:14.401Z,1.25
2023-03-29T10:21:13.381Z,1.57
2023-03-29T10:23:13.389Z,1.78
2023-03-29T10:24:14.383Z,1.82
2023-03-29T10:25:14.386Z,1.92
2023-03-29T10:26:13.360Z,2.02
2023-03-29T10:27:14.348Z,2.05
2023-03-29T10:28:14.398Z,2.06
2023-03-29T10:32:13.301Z,2.50
2023-03-29T10:33:14.308Z,2.60
2023-03-29T10:34:13.314Z,2.65
2023-03-29T10:35:14.277Z,2.70
2023-03-29T10:36:14.306Z,2.76
2023-03-29T10:41:13.287Z,3.17
2023-03-29T10:42:14.254Z,3.27
2023-03-29T10:43:14.241Z,3.21
2023-03-29T10:44:14.641Z,3.35
2023-03-29T10:46:13.418Z,3.40
2023-03-29T10:47:13.233Z,3.39
2023-03-29T10:48:14.256Z,3.32
2023-03-29T10:49:14.293Z,3.36
2023-03-29T10:50:14.305Z,3.38
2023-03-29T10:51:14.331Z,3.41
2023-03-29T10:52:14.313Z,3.32
2023-03-29T10:55:13.307Z,3.38
2023-03-29T10:56:14.320Z,3.35
2023-03-29T10:57:14.401Z,3.41
2023-03-29T10:58:14.313Z,3.37
2023-03-29T10:59:14.343Z,3.39
2023-03-29T11:00:14.375Z,3.38
2023-03-29T11:01:13.387Z,3.39
2023-03-29T11:02:13.418Z,3.35
2023-03-29T11:03:17.052Z,3.34
2023-03-29T11:04:14.384Z,3.34
2023-03-29T11:08:13.350Z,3.44
2023-03-29T11:09:14.358Z,3.50
2023-03-29T11:10:14.354Z,3.58
2023-03-29T11:13:13.593Z,3.48
2023-03-29T11:14:14.808Z,3.57
2023-03-29T11:17:13.292Z,3.45
2023-03-29T11:18:14.297Z,3.57
2023-03-29T11:20:13.271Z,3.57
2023-03-29T11:21:13.261Z,3.57
2023-03-29T11:22:14.248Z,3.60
2023-03-29T11:23:14.587Z,3.58
2023-03-29T11:25:13.271Z,3.62
2023-03-29T11:26:14.239Z,3.60
2023-03-29T11:28:13.354Z,3.54
2023-03-29T11:29:15.049Z,3.53
2023-03-29T11:33:13.433Z,3.59
2023-03-29T11:34:14.434Z,3.52
2023-03-29T11:35:15.066Z,3.58
2023-03-29T11:37:13.544Z,3.64
2023-03-29T11:38:14.576Z,3.56
2023-03-29T11:39:13.667Z,3.62
2023-03-29T11:40:15.391Z,3.66
2023-03-29T11:41:14.702Z,3.58
2023-03-29T11:43:13.731Z,3.63
2023-03-29T11:44:14.820Z,3.61
2023-03-29T11:46:13.914Z,3.67
2023-03-29T11:47:14.890Z,3.57
2023-03-29T11:48:14.919Z,3.61
2023-03-29T11:49:14.957Z,3.58
2023-03-29T11:50:13.963Z,3.63
2023-03-29T11:51:15.003Z,3.67
2023-03-29T11:52:15.023Z,3.60
2023-03-29T11:53:15.068Z,3.62
2023-03-29T11:54:15.123Z,3.61
2023-03-29T11:55:15.145Z,3.67
2023-03-29T11:56:15.461Z,3.68
2023-03-29T12:01:14.394Z,3.63
2023-03-29T12:04:14.469Z,3.63
2023-03-29T12:05:15.499Z,3.59
2023-03-29T12:06:15.819Z,3.68
2023-03-29T12:09:16.647Z,2.12
2023-03-29T12:10:15.668Z,0.99
2023-03-29T12:11:15.704Z,0.60
2023-03-29T12:12:15.752Z,0.49
2023-03-29T12:13:15.766Z,0.50
2023-03-29T12:16:14.883Z,0.49
2023-03-29T12:17:15.909Z,0.49
2023-03-29T12:18:15.965Z,0.52
2023-03-29T12:19:14.947Z,0.58
2023-03-29T12:20:15.929Z,0.65
2023-03-29T12:24:15.063Z,0.89
2023-03-29T12:30:15.257Z,2.18
2023-03-29T12:33:16.044Z,2.22
2023-03-29T12:34:16.378Z,2.29
2023-03-29T12:35:16.421Z,2.30
2023-03-29T12:39:15.431Z,2.61
2023-03-29T12:40:16.509Z,2.75
2023-03-29T12:45:15.757Z,3.39
2023-03-29T12:46:16.880Z,2.30
2023-03-29T12:48:15.876Z,0.85
2023-03-29T12:49:19.213Z,0.67
2023-03-29T12:51:15.888Z,0.69
2023-03-29T12:52:16.869Z,0.72
2023-03-29T12:53:16.878Z,0.91
2023-03-29T12:56:15.859Z,1.81
2023-03-29T12:57:16.882Z,2.14
2023-03-29T13:01:15.890Z,3.09
2023-03-29T13:02:16.890Z,3.16
2023-03-29T13:04:15.799Z,3.37
2023-03-29T13:05:16.912Z,3.51
2023-03-29T13:07:15.782Z,4.01
2023-03-29T13:08:15.809Z,4.09
2023-03-29T13:09:16.771Z,3.61
2023-03-29T13:12:15.869Z,4.14
2023-03-29T13:13:16.784Z,4.00
2023-03-29T13:14:16.792Z,4.13
2023-03-29T13:15:16.848Z,4.26
2023-03-29T13:16:16.948Z,4.31
2023-03-29T13:17:18.913Z,4.28
2023-03-29T13:21:15.950Z,4.51
2023-03-29T13:22:16.926Z,4.72
2023-03-29T13:24:15.902Z,4.65
2023-03-29T13:25:16.883Z,4.85
2023-03-29T13:31:15.863Z,5.09
2023-03-29T13:32:16.841Z,5.06
2023-03-29T13:34:15.819Z,5.22
2023-03-29T13:35:16.833Z,5.19
2023-03-29T13:37:15.830Z,5.17
2023-03-29T13:38:16.815Z,5.38
2023-03-29T13:39:16.802Z,5.37
2023-03-29T13:44:15.751Z,5.38
2023-03-29T13:45:16.822Z,5.41
2023-03-29T13:46:16.794Z,5.74
2023-03-29T13:47:16.732Z,6.12
2023-03-29T13:52:15.712Z,5.79
2023-03-29T13:53:16.714Z,5.80
2023-03-29T13:54:16.691Z,5.65
2023-03-29T13:59:15.650Z,5.68
2023-03-29T14:00:15.732Z,5.68
2023-03-29T14:01:16.723Z,5.88
2023-03-29T14:03:15.698Z,5.85
2023-03-29T14:04:16.635Z,5.67
2023-03-29T14:05:16.775Z,5.57
2023-03-29T14:06:16.696Z,5.63
2023-03-29T14:07:16.712Z,5.50
2023-03-29T14:08:16.782Z,5.43
2023-03-29T14:10:15.798Z,5.44
2023-03-29T14:11:16.826Z,5.55
2023-03-29T14:14:15.898Z,5.44
2023-03-29T14:15:16.928Z,5.38
2023-03-29T14:16:16.988Z,5.46
2023-03-29T14:17:16.981Z,5.43
2023-03-29T14:20:16.070Z,5.32
2023-03-29T14:21:17.112Z,5.28
2023-03-29T14:22:17.112Z,5.23
2023-03-29T14:23:17.133Z,5.17
2023-03-29T14:27:16.274Z,5.10
2023-03-29T14:28:17.286Z,5.07
2023-03-29T14:29:17.307Z,5.05
2023-03-29T14:30:17.335Z,5.04
2023-03-29T14:35:16.492Z,4.92
2023-03-29T14:36:17.713Z,4.89
2023-03-29T14:37:16.562Z,4.85
2023-03-29T14:38:17.653Z,4.86
2023-03-29T14:43:16.813Z,4.74
2023-03-29T14:44:17.853Z,4.73
2023-03-29T14:45:17.898Z,4.72
2023-03-29T14:46:17.953Z,4.72
2023-03-29T14:47:17.981Z,4.64
2023-03-29T14:48:18.034Z,4.61
2023-03-29T14:49:18.064Z,4.64
2023-03-29T14:50:18.119Z,4.70
2023-03-29T14:51:17.169Z,4.56
2023-03-29T14:52:18.196Z,4.62
2023-03-29T14:53:18.240Z,4.65
2023-03-29T14:54:18.286Z,4.54
2023-03-29T14:55:18.328Z,4.55
2023-03-29T14:56:18.389Z,4.53
2023-03-29T14:57:18.527Z,4.52
2023-03-29T14:58:18.472Z,4.56
2023-03-29T14:59:18.526Z,4.49
2023-03-29T15:00:17.637Z,4.43
2023-03-29T15:01:18.627Z,4.46
2023-03-29T15:02:18.668Z,4.44
2023-03-29T15:03:18.781Z,4.48
2023-03-29T15:07:17.915Z,4.34
2023-03-29T15:08:18.973Z,4.30
2023-03-29T15:09:19.029Z,4.26
2023-03-29T15:10:19.100Z,4.30
2023-03-29T15:11:19.176Z,4.25
2023-03-29T15:12:18.234Z,4.24
2023-03-29T15:13:19.264Z,4.24
2023-03-29T15:14:19.333Z,4.21
2023-03-29T15:15:19.405Z,4.23
2023-03-29T15:20:18.696Z,4.11
2023-03-29T15:21:19.765Z,4.15
2023-03-29T15:22:19.835Z,4.11
2023-03-29T15:23:19.909Z,4.06
2023-03-29T15:24:19.966Z,4.02
2023-03-29T15:25:20.032Z,4.00
2023-03-29T15:26:20.106Z,4.02
2023-03-29T15:27:20.157Z,4.04
2023-03-29T15:28:20.268Z,4.01
2023-03-29T15:29:20.291Z,3.97
2023-03-29T15:30:20.325Z,4.07
2023-03-29T15:31:31.907Z,3.96
2023-03-29T15:32:20.389Z,3.98
2023-03-29T15:33:20.496Z,4.01
2023-03-29T15:34:20.353Z,4.03
2023-03-29T15:35:20.333Z,4.05
2023-03-29T15:36:20.427Z,4.03
2023-03-29T15:37:19.367Z,4.02
2023-03-29T15:38:23.342Z,3.97
2023-03-29T15:39:20.482Z,3.99
2023-03-29T15:40:20.344Z,4.00
2023-03-29T15:41:20.371Z,4.00
2023-03-29T15:42:20.420Z,3.92
2023-03-29T15:43:20.306Z,3.94
2023-03-29T15:44:20.327Z,3.92
2023-03-29T15:45:20.394Z,3.94
2023-03-29T15:46:20.328Z,3.87
2023-03-29T15:47:20.328Z,3.97
2023-03-29T15:48:20.294Z,3.89
2023-03-29T15:49:20.281Z,3.84
2023-03-29T15:50:20.315Z,3.83
2023-03-29T15:51:19.687Z,3.82
2023-03-29T15:52:20.340Z,3.72
2023-03-29T15:53:20.344Z,3.82
2023-03-29T15:54:20.252Z,3.75
2023-03-29T15:55:20.229Z,3.79
2023-03-29T15:56:20.261Z,3.82
2023-03-29T15:57:20.399Z,3.72
2023-03-29T15:58:20.256Z,3.72
2023-03-29T15:59:20.193Z,3.75
2023-03-29T16:00:20.326Z,3.77
2023-03-29T16:01:20.373Z,3.74
2023-03-29T16:02:20.399Z,3.79
2023-03-29T16:03:20.489Z,3.65
2023-03-29T16:04:20.492Z,3.78
2023-03-29T16:05:20.593Z,3.70
2023-03-29T16:06:20.684Z,3.66
2023-03-29T16:07:20.659Z,3.65
2023-03-29T16:08:20.777Z,3.59
2023-03-29T16:09:20.802Z,3.65
2023-03-29T16:10:20.841Z,3.66
2023-03-29T16:11:21.348Z,3.59
2023-03-29T16:12:20.954Z,3.60
2023-03-29T16:13:21.064Z,3.57
2023-03-29T16:14:21.212Z,3.61
2023-03-29T16:15:21.065Z,3.53
2023-03-29T16:16:20.205Z,3.61
2023-03-29T16:17:21.360Z,3.59
2023-03-29T16:18:20.161Z,3.60
2023-03-29T16:19:21.165Z,3.46
2023-03-29T16:20:21.727Z,3.54
2023-03-29T16:21:21.212Z,3.50
2023-03-29T16:22:21.213Z,3.55
2023-03-29T16:23:21.562Z,3.46
2023-03-29T16:24:21.428Z,3.51
2023-03-29T16:25:21.828Z,3.52
2023-03-29T16:26:21.989Z,3.52
2023-03-29T16:27:22.306Z,3.49
2023-03-29T16:28:22.078Z,3.49
2023-03-29T16:29:22.042Z,3.51
2023-03-29T16:30:21.448Z,3.51
2023-03-29T16:31:22.526Z,3.52
2023-03-29T16:32:21.717Z,3.44
2023-03-29T16:33:21.610Z,3.50
2023-03-29T16:34:20.576Z,3.47
2023-03-29T16:35:21.581Z,3.40
2023-03-29T16:36:21.641Z,3.43
2023-03-29T16:37:20.581Z,3.45
2023-03-29T16:38:21.748Z,3.46
2023-03-29T16:39:21.588Z,3.41
2023-03-29T16:40:21.586Z,3.43
2023-03-29T16:41:21.598Z,3.40
2023-03-29T16:42:21.638Z,3.38
2023-03-29T16:43:20.570Z,3.42
2023-03-29T16:44:23.641Z,3.41
2023-03-29T16:45:20.565Z,3.46
2023-03-29T16:46:21.612Z,3.39
2023-03-29T16:47:21.571Z,3.40
2023-03-29T16:48:21.815Z,3.41
2023-03-29T16:49:21.753Z,3.37
2023-03-29T16:50:21.553Z,3.34
2023-03-29T16:51:22.574Z,3.29
2023-03-29T16:52:20.514Z,3.43
2023-03-29T16:53:21.826Z,3.37
2023-03-29T16:54:21.530Z,3.36
2023-03-29T16:55:21.511Z,3.32
2023-03-29T16:56:21.546Z,3.37
2023-03-29T16:57:21.552Z,3.38